sensor_id;sensor_type;location;lat;lon;timestamp;temperature;humidity
4090;DHT22;2059;48.538;12.146;2023-07-31T00:02:06;19.30;91.50
4090;DHT22;2059;48.538;12.146;2023-07-31T00:07:09;19.20;91.50
4090;DHT22;2059;48.538;12.146;2023-07-31T00:12:11;19.10;91.50
4090;DHT22;2059;48.538;12.146;2023-07-31T00:17:13;19.10;91.80
4090;DHT22;2059;48.538;12.146;2023-07-31T00:22:16;19.00;92.10
4090;DHT22;2059;48.538;12.146;2023-07-31T00:27:17;19.00;92.40
4090;DHT22;2059;48.538;12.146;2023-07-31T00:32:19;18.90;92.40
4090;DHT22;2059;48.538;12.146;2023-07-31T00:37:22;18.80;92.60
4090;DHT22;2059;48.538;12.146;2023-07-31T00:42:24;18.80;92.90
4090;DHT22;2059;48.538;12.146;2023-07-31T00:47:26;18.70;93.20
4090;DHT22;2059;48.538;12.146;2023-07-31T00:52:30;18.60;93.40
4090;DHT22;2059;48.538;12.146;2023-07-31T00:57:32;18.50;93.70
4090;DHT22;2059;48.538;12.146;2023-07-31T01:02:35;18.50;94.10
4090;DHT22;2059;48.538;12.146;2023-07-31T01:07:44;18.50;94.40
4090;DHT22;2059;48.538;12.146;2023-07-31T01:12:51;18.30;94.60
4090;DHT22;2059;48.538;12.146;2023-07-31T01:17:55;18.30;95.00
4090;DHT22;2059;48.538;12.146;2023-07-31T01:28:33;18.20;95.40
4090;DHT22;2059;48.538;12.146;2023-07-31T01:33:36;18.20;95.50
4090;DHT22;2059;48.538;12.146;2023-07-31T01:38:39;18.20;95.60
4090;DHT22;2059;48.538;12.146;2023-07-31T01:43:42;18.20;95.70
4090;DHT22;2059;48.538;12.146;2023-07-31T01:48:44;18.10;95.80
4090;DHT22;2059;48.538;12.146;2023-07-31T01:53:46;18.20;95.80
4090;DHT22;2059;48.538;12.146;2023-07-31T01:58:49;18.20;95.90
4090;DHT22;2059;48.538;12.146;2023-07-31T02:03:50;18.20;95.80
4090;DHT22;2059;48.538;12.146;2023-07-31T02:08:53;18.10;95.90
4090;DHT22;2059;48.538;12.146;2023-07-31T02:13:56;18.00;95.90
4090;DHT22;2059;48.538;12.146;2023-07-31T02:18:57;18.00;96.00
4090;DHT22;2059;48.538;12.146;2023-07-31T02:23:59;17.90;96.20
4090;DHT22;2059;48.538;12.146;2023-07-31T02:29:02;17.90;96.40
4090;DHT22;2059;48.538;12.146;2023-07-31T02:34:04;17.80;96.50
4090;DHT22;2059;48.538;12.146;2023-07-31T02:39:06;17.80;96.60
4090;DHT22;2059;48.538;12.146;2023-07-31T02:44:09;17.70;96.70
4090;DHT22;2059;48.538;12.146;2023-07-31T02:49:14;17.70;96.90
4090;DHT22;2059;48.538;12.146;2023-07-31T02:54:15;17.60;97.00
4090;DHT22;2059;48.538;12.146;2023-07-31T02:59:19;17.60;97.30
4090;DHT22;2059;48.538;12.146;2023-07-31T03:04:21;17.60;97.50
4090;DHT22;2059;48.538;12.146;2023-07-31T03:09:23;17.50;97.40
4090;DHT22;2059;48.538;12.146;2023-07-31T03:14:26;17.40;97.50
4090;DHT22;2059;48.538;12.146;2023-07-31T03:19:30;17.40;97.70
4090;DHT22;2059;48.538;12.146;2023-07-31T03:24:32;17.30;97.90
4090;DHT22;2059;48.538;12.146;2023-07-31T03:29:35;17.40;98.10
4090;DHT22;2059;48.538;12.146;2023-07-31T03:34:37;17.30;98.10
4090;DHT22;2059;48.538;12.146;2023-07-31T03:39:39;17.30;98.10
4090;DHT22;2059;48.538;12.146;2023-07-31T03:44:42;17.20;98.20
4090;DHT22;2059;48.538;12.146;2023-07-31T03:49:44;17.10;98.30
4090;DHT22;2059;48.538;12.146;2023-07-31T03:54:45;17.10;98.40
4090;DHT22;2059;48.538;12.146;2023-07-31T03:59:48;17.10;98.40
4090;DHT22;2059;48.538;12.146;2023-07-31T04:04:50;17.10;98.40
4090;DHT22;2059;48.538;12.146;2023-07-31T04:09:52;17.10;98.50
4090;DHT22;2059;48.538;12.146;2023-07-31T04:14:55;17.00;98.70
4090;DHT22;2059;48.538;12.146;2023-07-31T04:19:57;17.10;98.80
4090;DHT22;2059;48.538;12.146;2023-07-31T04:24:59;17.00;98.70
4090;DHT22;2059;48.538;12.146;2023-07-31T04:30:02;17.00;98.70
4090;DHT22;2059;48.538;12.146;2023-07-31T04:35:05;17.00;98.80
4090;DHT22;2059;48.538;12.146;2023-07-31T04:40:07;17.10;98.80
4090;DHT22;2059;48.538;12.146;2023-07-31T04:45:11;17.10;99.20
4090;DHT22;2059;48.538;12.146;2023-07-31T04:50:13;17.20;99.10
4090;DHT22;2059;48.538;12.146;2023-07-31T04:55:14;17.20;99.20
4090;DHT22;2059;48.538;12.146;2023-07-31T05:00:18;17.30;99.30
4090;DHT22;2059;48.538;12.146;2023-07-31T05:05:20;17.30;99.30
4090;DHT22;2059;48.538;12.146;2023-07-31T05:10:22;17.40;99.30
4090;DHT22;2059;48.538;12.146;2023-07-31T05:15:25;17.40;99.20
4090;DHT22;2059;48.538;12.146;2023-07-31T05:20:27;17.50;99.30
4090;DHT22;2059;48.538;12.146;2023-07-31T05:25:29;17.60;99.20
4090;DHT22;2059;48.538;12.146;2023-07-31T05:30:32;17.60;99.10
4090;DHT22;2059;48.538;12.146;2023-07-31T05:35:33;17.70;99.20
4090;DHT22;2059;48.538;12.146;2023-07-31T05:40:35;17.80;99.30
4090;DHT22;2059;48.538;12.146;2023-07-31T05:45:39;18.10;99.30
4090;DHT22;2059;48.538;12.146;2023-07-31T05:50:42;18.20;99.40
4090;DHT22;2059;48.538;12.146;2023-07-31T05:55:44;18.50;99.30
4090;DHT22;2059;48.538;12.146;2023-07-31T06:00:47;18.70;99.30
4090;DHT22;2059;48.538;12.146;2023-07-31T06:05:49;18.90;99.30
4090;DHT22;2059;48.538;12.146;2023-07-31T06:10:51;18.90;99.70
4090;DHT22;2059;48.538;12.146;2023-07-31T06:15:54;19.10;99.50
4090;DHT22;2059;48.538;12.146;2023-07-31T06:20:56;19.30;99.60
4090;DHT22;2059;48.538;12.146;2023-07-31T06:25:57;19.40;99.70
4090;DHT22;2059;48.538;12.146;2023-07-31T06:31:01;19.50;99.60
4090;DHT22;2059;48.538;12.146;2023-07-31T06:36:02;19.70;99.70
4090;DHT22;2059;48.538;12.146;2023-07-31T06:41:04;20.10;99.60
4090;DHT22;2059;48.538;12.146;2023-07-31T06:46:07;20.40;99.10
4090;DHT22;2059;48.538;12.146;2023-07-31T06:51:10;20.60;98.80
4090;DHT22;2059;48.538;12.146;2023-07-31T06:56:12;20.80;98.60
4090;DHT22;2059;48.538;12.146;2023-07-31T07:01:15;20.90;98.50
4090;DHT22;2059;48.538;12.146;2023-07-31T07:06:17;21.10;98.60
4090;DHT22;2059;48.538;12.146;2023-07-31T07:11:19;21.20;97.80
4090;DHT22;2059;48.538;12.146;2023-07-31T07:16:22;21.30;97.20
4090;DHT22;2059;48.538;12.146;2023-07-31T07:21:23;21.20;96.80
4090;DHT22;2059;48.538;12.146;2023-07-31T07:26:25;21.30;97.30
4090;DHT22;2059;48.538;12.146;2023-07-31T07:31:28;21.50;97.00
4090;DHT22;2059;48.538;12.146;2023-07-31T07:36:30;21.80;96.50
4090;DHT22;2059;48.538;12.146;2023-07-31T07:41:33;22.20;95.90
4090;DHT22;2059;48.538;12.146;2023-07-31T07:46:36;22.20;95.70
4090;DHT22;2059;48.538;12.146;2023-07-31T07:51:38;22.20;95.40
4090;DHT22;2059;48.538;12.146;2023-07-31T07:56:39;22.20;95.00
4090;DHT22;2059;48.538;12.146;2023-07-31T08:01:43;22.20;95.00
4090;DHT22;2059;48.538;12.146;2023-07-31T08:06:44;22.30;94.60
4090;DHT22;2059;48.538;12.146;2023-07-31T08:11:46;22.60;93.80
4090;DHT22;2059;48.538;12.146;2023-07-31T08:16:49;22.80;93.30
4090;DHT22;2059;48.538;12.146;2023-07-31T08:21:51;23.10;92.80
4090;DHT22;2059;48.538;12.146;2023-07-31T08:26:53;23.60;91.80
4090;DHT22;2059;48.538;12.146;2023-07-31T08:31:56;24.00;91.70
4090;DHT22;2059;48.538;12.146;2023-07-31T08:36:57;23.90;91.90
4090;DHT22;2059;48.538;12.146;2023-07-31T08:41:59;24.30;90.20
4090;DHT22;2059;48.538;12.146;2023-07-31T08:47:03;24.60;88.90
4090;DHT22;2059;48.538;12.146;2023-07-31T08:52:06;24.70;90.00
4090;DHT22;2059;48.538;12.146;2023-07-31T08:57:09;24.80;90.00
4090;DHT22;2059;48.538;12.146;2023-07-31T09:02:15;24.40;90.00
4090;DHT22;2059;48.538;12.146;2023-07-31T09:07:17;24.60;90.00
4090;DHT22;2059;48.538;12.146;2023-07-31T09:12:19;24.40;90.40
4090;DHT22;2059;48.538;12.146;2023-07-31T09:17:30;24.40;90.70
4090;DHT22;2059;48.538;12.146;2023-07-31T09:22:34;24.20;90.60
4090;DHT22;2059;48.538;12.146;2023-07-31T09:27:46;24.20;91.10
4090;DHT22;2059;48.538;12.146;2023-07-31T09:32:51;24.40;90.00
4090;DHT22;2059;48.538;12.146;2023-07-31T09:37:55;24.20;89.00
4090;DHT22;2059;48.538;12.146;2023-07-31T09:42:57;24.10;87.80
4090;DHT22;2059;48.538;12.146;2023-07-31T09:48:01;24.00;88.90
4090;DHT22;2059;48.538;12.146;2023-07-31T09:53:03;24.10;87.90
4090;DHT22;2059;48.538;12.146;2023-07-31T09:58:06;24.20;86.80
4090;DHT22;2059;48.538;12.146;2023-07-31T10:03:10;24.10;87.50
4090;DHT22;2059;48.538;12.146;2023-07-31T10:08:14;24.00;85.90
4090;DHT22;2059;48.538;12.146;2023-07-31T10:13:16;24.40;85.70
4090;DHT22;2059;48.538;12.146;2023-07-31T10:18:20;25.00;86.20
4090;DHT22;2059;48.538;12.146;2023-07-31T10:23:23;25.80;84.30
4090;DHT22;2059;48.538;12.146;2023-07-31T10:28:26;25.80;84.20
4090;DHT22;2059;48.538;12.146;2023-07-31T10:33:30;26.00;82.80
4090;DHT22;2059;48.538;12.146;2023-07-31T10:38:32;26.30;81.80
4090;DHT22;2059;48.538;12.146;2023-07-31T10:43:34;26.60;80.80
4090;DHT22;2059;48.538;12.146;2023-07-31T10:48:39;26.60;79.60
4090;DHT22;2059;48.538;12.146;2023-07-31T10:53:42;26.50;78.80
4090;DHT22;2059;48.538;12.146;2023-07-31T10:58:44;26.40;78.90
4090;DHT22;2059;48.538;12.146;2023-07-31T11:03:48;26.30;77.20
4090;DHT22;2059;48.538;12.146;2023-07-31T11:08:53;25.90;79.10
4090;DHT22;2059;48.538;12.146;2023-07-31T11:13:55;25.60;82.10
4090;DHT22;2059;48.538;12.146;2023-07-31T11:18:58;26.00;79.20
4090;DHT22;2059;48.538;12.146;2023-07-31T11:24:00;25.80;78.90
4090;DHT22;2059;48.538;12.146;2023-07-31T11:29:02;25.80;79.30
4090;DHT22;2059;48.538;12.146;2023-07-31T11:34:13;26.20;78.50
4090;DHT22;2059;48.538;12.146;2023-07-31T11:39:15;26.10;76.20
4090;DHT22;2059;48.538;12.146;2023-07-31T11:44:17;25.90;77.00
4090;DHT22;2059;48.538;12.146;2023-07-31T11:49:21;25.90;77.30
4090;DHT22;2059;48.538;12.146;2023-07-31T11:54:23;26.00;77.80
4090;DHT22;2059;48.538;12.146;2023-07-31T11:59:25;26.60;77.50
4090;DHT22;2059;48.538;12.146;2023-07-31T12:04:28;26.90;76.20
4090;DHT22;2059;48.538;12.146;2023-07-31T12:09:30;27.20;77.90
4090;DHT22;2059;48.538;12.146;2023-07-31T12:14:31;27.40;76.40
4090;DHT22;2059;48.538;12.146;2023-07-31T12:19:34;27.50;75.10
4090;DHT22;2059;48.538;12.146;2023-07-31T12:24:36;27.40;75.80
4090;DHT22;2059;48.538;12.146;2023-07-31T12:29:38;27.30;74.70
4090;DHT22;2059;48.538;12.146;2023-07-31T12:34:43;27.10;74.70
4090;DHT22;2059;48.538;12.146;2023-07-31T12:39:45;27.30;74.30
4090;DHT22;2059;48.538;12.146;2023-07-31T12:44:47;27.20;74.90
4090;DHT22;2059;48.538;12.146;2023-07-31T12:49:50;27.30;75.00
4090;DHT22;2059;48.538;12.146;2023-07-31T12:54:52;27.30;73.50
4090;DHT22;2059;48.538;12.146;2023-07-31T12:59:53;27.40;74.40
4090;DHT22;2059;48.538;12.146;2023-07-31T13:04:56;27.50;73.70
4090;DHT22;2059;48.538;12.146;2023-07-31T13:09:58;27.40;73.30
4090;DHT22;2059;48.538;12.146;2023-07-31T13:15:00;27.60;75.30
4090;DHT22;2059;48.538;12.146;2023-07-31T13:20:04;27.60;72.00
4090;DHT22;2059;48.538;12.146;2023-07-31T13:25:06;27.10;72.90
4090;DHT22;2059;48.538;12.146;2023-07-31T13:30:09;27.00;74.50
4090;DHT22;2059;48.538;12.146;2023-07-31T13:35:12;27.10;74.90
4090;DHT22;2059;48.538;12.146;2023-07-31T13:40:14;27.20;76.30
4090;DHT22;2059;48.538;12.146;2023-07-31T13:45:15;27.20;74.00
4090;DHT22;2059;48.538;12.146;2023-07-31T13:50:19;27.20;73.80
4090;DHT22;2059;48.538;12.146;2023-07-31T13:55:22;27.10;75.00
4090;DHT22;2059;48.538;12.146;2023-07-31T14:00:23;26.90;74.90
4090;DHT22;2059;48.538;12.146;2023-07-31T14:05:27;26.70;74.50
4090;DHT22;2059;48.538;12.146;2023-07-31T14:10:29;26.90;77.10
4090;DHT22;2059;48.538;12.146;2023-07-31T14:15:30;26.70;76.10
4090;DHT22;2059;48.538;12.146;2023-07-31T14:20:34;26.70;76.20
4090;DHT22;2059;48.538;12.146;2023-07-31T14:25:36;26.50;77.00
4090;DHT22;2059;48.538;12.146;2023-07-31T14:30:38;26.60;76.00
4090;DHT22;2059;48.538;12.146;2023-07-31T14:35:41;27.00;74.70
4090;DHT22;2059;48.538;12.146;2023-07-31T14:40:43;27.40;73.30
4090;DHT22;2059;48.538;12.146;2023-07-31T14:45:44;27.20;72.20
4090;DHT22;2059;48.538;12.146;2023-07-31T14:50:48;27.20;73.30
4090;DHT22;2059;48.538;12.146;2023-07-31T14:55:50;27.40;74.20
4090;DHT22;2059;48.538;12.146;2023-07-31T15:00:52;27.50;74.00
4090;DHT22;2059;48.538;12.146;2023-07-31T15:05:55;27.30;74.60
4090;DHT22;2059;48.538;12.146;2023-07-31T15:10:57;27.40;74.90
4090;DHT22;2059;48.538;12.146;2023-07-31T15:15:59;27.30;75.40
4090;DHT22;2059;48.538;12.146;2023-07-31T15:21:02;27.10;75.70
4090;DHT22;2059;48.538;12.146;2023-07-31T15:26:04;26.70;76.00
4090;DHT22;2059;48.538;12.146;2023-07-31T15:31:06;26.70;75.50
4090;DHT22;2059;48.538;12.146;2023-07-31T15:36:10;26.30;76.90
4090;DHT22;2059;48.538;12.146;2023-07-31T15:41:11;26.20;78.40
4090;DHT22;2059;48.538;12.146;2023-07-31T15:46:13;26.00;79.10
4090;DHT22;2059;48.538;12.146;2023-07-31T15:51:16;26.10;78.40
4090;DHT22;2059;48.538;12.146;2023-07-31T15:56:18;26.10;77.50
4090;DHT22;2059;48.538;12.146;2023-07-31T16:01:20;26.10;78.60
4090;DHT22;2059;48.538;12.146;2023-07-31T16:06:23;26.00;77.60
4090;DHT22;2059;48.538;12.146;2023-07-31T16:11:26;26.10;77.30
4090;DHT22;2059;48.538;12.146;2023-07-31T16:16:28;25.90;76.80
4090;DHT22;2059;48.538;12.146;2023-07-31T16:21:31;26.00;77.40
4090;DHT22;2059;48.538;12.146;2023-07-31T16:26:33;26.30;75.10
4090;DHT22;2059;48.538;12.146;2023-07-31T16:31:34;26.10;76.70
4090;DHT22;2059;48.538;12.146;2023-07-31T16:36:38;25.90;76.10
4090;DHT22;2059;48.538;12.146;2023-07-31T16:41:39;26.00;75.90
4090;DHT22;2059;48.538;12.146;2023-07-31T16:46:41;25.80;76.80
4090;DHT22;2059;48.538;12.146;2023-07-31T16:51:44;25.70;77.10
4090;DHT22;2059;48.538;12.146;2023-07-31T16:56:46;25.40;76.60
4090;DHT22;2059;48.538;12.146;2023-07-31T17:01:49;25.50;76.90
4090;DHT22;2059;48.538;12.146;2023-07-31T17:06:52;25.70;76.20
4090;DHT22;2059;48.538;12.146;2023-07-31T17:11:54;25.60;76.20
4090;DHT22;2059;48.538;12.146;2023-07-31T17:16:56;25.40;77.50
4090;DHT22;2059;48.538;12.146;2023-07-31T17:21:59;25.30;77.20
4090;DHT22;2059;48.538;12.146;2023-07-31T17:27:01;25.40;77.70
4090;DHT22;2059;48.538;12.146;2023-07-31T17:32:03;25.10;77.60
4090;DHT22;2059;48.538;12.146;2023-07-31T17:37:06;24.80;78.40
4090;DHT22;2059;48.538;12.146;2023-07-31T17:42:07;24.70;79.10
4090;DHT22;2059;48.538;12.146;2023-07-31T17:47:09;24.70;79.10
4090;DHT22;2059;48.538;12.146;2023-07-31T17:52:12;24.60;79.40
4090;DHT22;2059;48.538;12.146;2023-07-31T17:57:14;24.70;79.90
4090;DHT22;2059;48.538;12.146;2023-07-31T18:02:16;24.60;80.70
4090;DHT22;2059;48.538;12.146;2023-07-31T18:07:19;24.60;79.80
4090;DHT22;2059;48.538;12.146;2023-07-31T18:12:21;24.50;79.80
4090;DHT22;2059;48.538;12.146;2023-07-31T18:17:23;24.40;80.00
4090;DHT22;2059;48.538;12.146;2023-07-31T18:22:27;24.20;80.80
4090;DHT22;2059;48.538;12.146;2023-07-31T18:27:29;24.10;81.10
4090;DHT22;2059;48.538;12.146;2023-07-31T18:32:31;24.10;80.90
4090;DHT22;2059;48.538;12.146;2023-07-31T18:37:34;23.90;81.60
4090;DHT22;2059;48.538;12.146;2023-07-31T18:42:35;23.80;82.20
4090;DHT22;2059;48.538;12.146;2023-07-31T18:47:37;23.70;82.60
4090;DHT22;2059;48.538;12.146;2023-07-31T18:52:40;23.50;83.10
4090;DHT22;2059;48.538;12.146;2023-07-31T18:57:43;23.50;83.80
4090;DHT22;2059;48.538;12.146;2023-07-31T19:02:45;23.40;84.00
4090;DHT22;2059;48.538;12.146;2023-07-31T19:07:48;23.20;85.00
4090;DHT22;2059;48.538;12.146;2023-07-31T19:12:50;23.20;84.80
4090;DHT22;2059;48.538;12.146;2023-07-31T19:17:53;22.90;84.80
4090;DHT22;2059;48.538;12.146;2023-07-31T19:22:56;22.90;85.10
4090;DHT22;2059;48.538;12.146;2023-07-31T19:27:59;22.90;85.10
4090;DHT22;2059;48.538;12.146;2023-07-31T19:33:00;22.70;85.60
4090;DHT22;2059;48.538;12.146;2023-07-31T19:38:04;22.70;86.40
4090;DHT22;2059;48.538;12.146;2023-07-31T19:43:05;22.60;86.90
4090;DHT22;2059;48.538;12.146;2023-07-31T19:48:07;22.50;86.90
4090;DHT22;2059;48.538;12.146;2023-07-31T19:53:10;22.50;87.30
4090;DHT22;2059;48.538;12.146;2023-07-31T19:58:12;22.40;88.10
4090;DHT22;2059;48.538;12.146;2023-07-31T20:03:14;22.30;88.50
4090;DHT22;2059;48.538;12.146;2023-07-31T20:08:17;22.20;88.30
4090;DHT22;2059;48.538;12.146;2023-07-31T20:13:19;22.20;89.10
4090;DHT22;2059;48.538;12.146;2023-07-31T20:18:21;22.20;89.40
4090;DHT22;2059;48.538;12.146;2023-07-31T20:23:24;22.10;89.30
4090;DHT22;2059;48.538;12.146;2023-07-31T20:28:26;22.10;89.20
4090;DHT22;2059;48.538;12.146;2023-07-31T20:33:28;22.10;88.60
4090;DHT22;2059;48.538;12.146;2023-07-31T20:38:31;22.00;89.00
4090;DHT22;2059;48.538;12.146;2023-07-31T20:43:33;21.90;89.00
4090;DHT22;2059;48.538;12.146;2023-07-31T20:48:35;22.00;89.20
4090;DHT22;2059;48.538;12.146;2023-07-31T20:53:38;21.90;89.30
4090;DHT22;2059;48.538;12.146;2023-07-31T20:58:40;21.70;90.00
4090;DHT22;2059;48.538;12.146;2023-07-31T21:03:41;21.70;90.50
4090;DHT22;2059;48.538;12.146;2023-07-31T21:08:45;21.60;90.80
4090;DHT22;2059;48.538;12.146;2023-07-31T21:13:46;21.60;91.10
4090;DHT22;2059;48.538;12.146;2023-07-31T21:18:50;21.60;91.20
4090;DHT22;2059;48.538;12.146;2023-07-31T21:23:55;21.60;91.20
4090;DHT22;2059;48.538;12.146;2023-07-31T21:28:57;21.60;90.60
4090;DHT22;2059;48.538;12.146;2023-07-31T21:33:59;21.50;90.50
4090;DHT22;2059;48.538;12.146;2023-07-31T21:39:02;21.50;90.80
4090;DHT22;2059;48.538;12.146;2023-07-31T21:44:04;21.50;91.10
4090;DHT22;2059;48.538;12.146;2023-07-31T21:49:06;21.50;91.30
4090;DHT22;2059;48.538;12.146;2023-07-31T21:54:09;21.50;91.40
4090;DHT22;2059;48.538;12.146;2023-07-31T21:59:10;21.50;91.40
4090;DHT22;2059;48.538;12.146;2023-07-31T22:04:12;21.50;91.40
4090;DHT22;2059;48.538;12.146;2023-07-31T22:09:15;21.50;91.50
4090;DHT22;2059;48.538;12.146;2023-07-31T22:14:17;21.50;91.70
4090;DHT22;2059;48.538;12.146;2023-07-31T22:19:19;21.50;91.80
4090;DHT22;2059;48.538;12.146;2023-07-31T22:24:22;21.50;91.70
4090;DHT22;2059;48.538;12.146;2023-07-31T22:29:24;21.50;91.80
4090;DHT22;2059;48.538;12.146;2023-07-31T22:34:26;21.40;91.80
4090;DHT22;2059;48.538;12.146;2023-07-31T22:39:29;21.50;91.90
4090;DHT22;2059;48.538;12.146;2023-07-31T22:44:31;21.40;92.10
4090;DHT22;2059;48.538;12.146;2023-07-31T22:49:32;21.50;92.30
4090;DHT22;2059;48.538;12.146;2023-07-31T22:54:35;21.50;92.30
4090;DHT22;2059;48.538;12.146;2023-07-31T22:59:37;21.40;92.60
4090;DHT22;2059;48.538;12.146;2023-07-31T23:04:39;21.40;93.30
4090;DHT22;2059;48.538;12.146;2023-07-31T23:09:42;21.40;94.60
4090;DHT22;2059;48.538;12.146;2023-07-31T23:14:44;21.30;95.10
4090;DHT22;2059;48.538;12.146;2023-07-31T23:19:46;21.20;95.20
4090;DHT22;2059;48.538;12.146;2023-07-31T23:24:49;21.20;95.80
4090;DHT22;2059;48.538;12.146;2023-07-31T23:29:50;21.20;96.40
4090;DHT22;2059;48.538;12.146;2023-07-31T23:34:52;21.10;97.00
4090;DHT22;2059;48.538;12.146;2023-07-31T23:39:55;21.10;97.40
4090;DHT22;2059;48.538;12.146;2023-07-31T23:44:58;20.90;97.60
4090;DHT22;2059;48.538;12.146;2023-07-31T23:50:00;21.00;98.00
4090;DHT22;2059;48.538;12.146;2023-07-31T23:55:04;20.90;98.30
